createdAt,value
2023-04-03T00:00:46.515Z,99541.25
2023-04-03T00:03:14.269Z,99537.94
2023-04-03T00:05:42.305Z,99540.06
2023-04-03T00:08:10.597Z,99531.91
2023-04-03T00:10:38.932Z,99540.06
2023-04-03T00:13:06.945Z,99536.50
2023-04-03T00:15:34.453Z,99545.75
2023-04-03T00:18:02.589Z,99543.84
2023-04-03T00:20:30.066Z,99545.50
2023-04-03T00:22:58.308Z,99546.56
2023-04-03T00:25:26.070Z,99549.31
2023-04-03T00:27:53.546Z,99550.13
2023-04-03T00:30:22.081Z,99558.50
2023-04-03T00:32:50.747Z,99557.09
2023-04-03T00:35:18.489Z,99560.88
2023-04-03T00:37:46.018Z,99556.47
2023-04-03T00:40:14.470Z,99567.34
2023-04-03T00:42:42.285Z,99555.66
2023-04-03T00:45:12.654Z,99563.22
2023-04-03T00:47:41.157Z,99561.56
2023-04-03T00:50:09.016Z,99556.97
2023-04-03T00:52:36.572Z,99557.19
2023-04-03T00:55:06.949Z,99567.00
2023-04-03T00:57:34.339Z,99565.34
2023-04-03T01:00:10.412Z,99565.63
2023-04-03T01:02:38.393Z,99573.03
2023-04-03T01:05:07.238Z,99572.47
2023-04-03T01:07:36.222Z,99571.63
2023-04-03T01:10:15.172Z,99571.84
2023-04-03T01:12:46.782Z,99566.41
2023-04-03T01:15:24.030Z,99571.25
2023-04-03T01:17:52.936Z,99568.53
2023-04-03T01:20:33.196Z,99570.62
2023-04-03T01:23:10.067Z,99570.19
2023-04-03T01:25:43.088Z,99578.59
2023-04-03T01:28:13.206Z,99571.69
2023-04-03T01:30:51.337Z,99571.69
2023-04-03T01:33:19.292Z,99572.31
2023-04-03T01:35:48.042Z,99576.06
2023-04-03T01:38:16.041Z,99576.31
2023-04-03T01:40:43.572Z,99573.59
2023-04-03T01:43:11.667Z,99577.16
2023-04-03T01:45:39.142Z,99567.31
2023-04-03T01:48:06.762Z,99575.72
2023-04-03T01:50:34.815Z,99579.28
2023-04-03T01:53:02.375Z,99576.56
2023-04-03T01:55:29.820Z,99578.44
2023-04-03T01:57:57.684Z,99574.91
2023-04-03T02:00:25.201Z,99584.47
2023-04-03T02:02:53.115Z,99581.16
2023-04-03T02:05:20.560Z,99582.00
2023-04-03T02:07:48.023Z,99583.91
2023-04-03T02:10:16.130Z,99588.50
2023-04-03T02:12:43.656Z,99582.22
2023-04-03T02:15:11.213Z,99577.62
2023-04-03T02:17:38.990Z,99585.78
2023-04-03T02:20:07.002Z,99581.37
2023-04-03T02:22:34.528Z,99587.88
2023-04-03T02:25:05.880Z,99584.59
2023-04-03T02:27:33.318Z,99590.03
2023-04-03T02:30:00.805Z,99592.75
2023-04-03T02:32:28.835Z,99589.19
2023-04-03T02:34:57.395Z,99586.47
2023-04-03T02:37:24.930Z,99584.78
2023-04-03T02:39:53.028Z,99586.47
2023-04-03T02:42:20.871Z,99584.78
2023-04-03T02:44:48.405Z,99589.41
2023-04-03T02:47:16.137Z,99590.22
2023-04-03T02:49:46.043Z,99589.66
2023-04-03T02:52:14.326Z,99579.59
2023-04-03T02:54:42.303Z,99586.69
2023-04-03T02:57:10.247Z,99580.41
2023-04-03T02:59:38.217Z,99580.41
2023-04-03T03:02:06.236Z,99586.69
2023-04-03T03:04:33.688Z,99589.66
2023-04-03T03:07:01.316Z,99595.91
2023-04-03T03:09:30.481Z,99597.81
2023-04-03T03:11:58.124Z,99596.97
2023-04-03T03:14:25.566Z,99596.16
2023-04-03T03:16:53.313Z,99600.75
2023-04-03T03:19:20.743Z,99607.03
2023-04-03T03:21:48.328Z,99608.06
2023-04-03T03:24:16.930Z,99605.34
2023-04-03T03:26:44.359Z,99604.53
2023-04-03T03:29:12.601Z,99608.94
2023-04-03T03:31:40.847Z,99609.97
2023-04-03T03:34:08.472Z,99608.94
2023-04-03T03:36:36.397Z,99603.50
2023-04-03T03:39:04.528Z,99605.34
2023-04-03T03:41:32.151Z,99607.25
2023-04-03T03:43:59.786Z,99605.34
2023-04-03T03:46:28.701Z,99609.75
2023-04-03T03:48:56.267Z,99606.22
2023-04-03T03:51:24.111Z,99608.31
2023-04-03T03:53:52.434Z,99618.13
2023-04-03T03:56:20.099Z,99613.75
2023-04-03T03:58:47.698Z,99618.38
2023-04-03T04:01:16.216Z,99612.09
2023-04-03T04:03:44.402Z,99615.66
2023-04-03T04:06:12.344Z,99611.28
2023-04-03T04:08:39.797Z,99611.28
2023-04-03T04:11:07.919Z,99607.72
2023-04-03T04:13:35.411Z,99607.47
2023-04-03T04:16:03.089Z,99606.03
2023-04-03T04:18:31.232Z,99608.16
2023-04-03T04:20:58.941Z,99609.00
2023-04-03T04:23:26.467Z,99616.09
2023-04-03T04:25:54.500Z,99615.25
2023-04-03T04:28:22.682Z,99610.88
2023-04-03T04:30:51.260Z,99609.22
2023-04-03T04:33:19.351Z,99618.22
2023-04-03T04:35:48.671Z,99611.72
2023-04-03T04:38:17.299Z,99615.50
2023-04-03T04:40:45.071Z,99614.44
2023-04-03T04:43:15.408Z,99623.66
2023-04-03T04:45:42.900Z,99620.94
2023-04-03T04:48:11.181Z,99626.28
2023-04-03T04:50:39.138Z,99616.09
2023-04-03T04:53:25.437Z,99618.47
2023-04-03T04:55:53.776Z,99619.50
2023-04-03T04:58:21.661Z,99628.47
2023-04-03T05:00:49.241Z,99633.09
2023-04-03T05:03:17.418Z,99627.66
2023-04-03T05:05:46.140Z,99621.34
2023-04-03T05:08:14.181Z,99620.31
2023-04-03T05:10:43.174Z,99629.50
2023-04-03T05:13:11.458Z,99636.84
2023-04-03T05:15:39.612Z,99629.50
2023-04-03T05:18:07.758Z,99631.41
2023-04-03T05:20:35.842Z,99636.84
2023-04-03T05:23:03.479Z,99636.84
2023-04-03T05:25:32.054Z,99641.47
2023-04-03T05:27:59.959Z,99637.09
2023-04-03T05:30:27.833Z,99637.09
2023-04-03T05:32:55.790Z,99636.25
2023-04-03T05:35:23.864Z,99633.31
2023-04-03T05:37:51.887Z,99628.69
2023-04-03T05:40:19.854Z,99627.03
2023-04-03T05:42:47.741Z,99627.84
2023-04-03T05:45:15.637Z,99633.53
2023-04-03T05:47:43.445Z,99630.81
2023-04-03T05:50:11.342Z,99635.44
2023-04-03T05:52:39.867Z,99638.97
2023-04-03T05:55:08.586Z,99640.03
2023-04-03T05:57:36.203Z,99644.41
2023-04-03T06:00:09.250Z,99651.50
2023-04-03T06:02:42.805Z,99648.78
2023-04-03T06:05:13.454Z,99647.97
2023-04-03T06:07:41.642Z,99649.84
2023-04-03T06:10:12.837Z,99644.38
2023-04-03T06:12:40.293Z,99658.59
2023-04-03T06:15:09.406Z,99658.84
2023-04-03T06:17:38.388Z,99651.97
2023-04-03T06:20:07.210Z,99649.25
2023-04-03T06:22:34.948Z,99653.03
2023-04-03T06:25:02.781Z,99655.50
2023-04-03T06:27:30.338Z,99657.41
2023-04-03T06:29:57.822Z,99659.09
2023-04-03T06:32:26.103Z,99658.22
2023-04-03T06:34:54.432Z,99653.84
2023-04-03T06:37:22.826Z,99653.03
2023-04-03T06:39:50.583Z,99658.22
2023-04-03T06:42:18.048Z,99668.28
2023-04-03T06:44:46.084Z,99672.06
2023-04-03T06:47:14.642Z,99671.22
2023-04-03T06:49:42.424Z,99680.00
2023-04-03T06:52:10.011Z,99677.28
2023-04-03T06:54:37.747Z,99682.72
2023-04-03T06:57:05.266Z,99678.12
2023-04-03T06:59:32.842Z,99682.72
2023-04-03T07:02:00.931Z,99679.16
2023-04-03T07:04:28.449Z,99673.72
2023-04-03T07:06:56.068Z,99674.53
2023-04-03T07:09:24.017Z,99673.72
2023-04-03T07:11:51.480Z,99683.56
2023-04-03T07:14:19.247Z,99691.72
2023-04-03T07:16:46.955Z,99680.91
2023-04-03T07:19:14.473Z,99688.31
2023-04-03T07:21:42.969Z,99677.44
2023-04-03T07:24:13.105Z,99681.19
2023-04-03T07:26:44.010Z,99682.88
2023-04-03T07:29:13.329Z,99680.97
2023-04-03T07:31:42.592Z,99674.25
2023-04-03T07:34:10.162Z,99677.78
2023-04-03T07:36:38.527Z,99693.06
2023-04-03T07:39:07.310Z,99692.22
2023-04-03T07:41:34.989Z,99699.34
2023-04-03T07:44:03.606Z,99703.72
2023-04-03T07:46:31.129Z,99705.16
2023-04-03T07:48:58.932Z,99705.16
2023-04-03T07:51:27.794Z,99704.94
2023-04-03T07:53:55.356Z,99705.53
2023-04-03T07:56:23.831Z,99700.09
2023-04-03T07:58:51.739Z,99702.63
2023-04-03T08:01:19.194Z,99715.97
2023-04-03T08:03:46.996Z,99712.19
2023-04-03T08:06:16.945Z,99713.03
2023-04-03T08:08:46.860Z,99716.41
2023-04-03T08:11:14.664Z,99712.63
2023-04-03T08:13:43.902Z,99715.34
2023-04-03T08:16:13.514Z,99721.38
2023-04-03T08:18:41.531Z,99724.72
2023-04-03T08:21:10.115Z,99720.09
2023-04-03T08:23:38.063Z,99732.66
2023-04-03T08:26:13.702Z,99720.94
2023-04-03T08:28:41.606Z,99724.88
2023-04-03T08:31:12.777Z,99725.06
2023-04-03T08:33:40.655Z,99734.94
2023-04-03T08:36:09.288Z,99725.69
2023-04-03T08:38:38.277Z,99724.63
2023-04-03T08:41:12.540Z,99727.13
2023-04-03T08:44:05.144Z,99723.81
2023-04-03T08:46:53.936Z,99728.19
2023-04-03T08:49:27.464Z,99721.31
2023-04-03T08:51:57.881Z,99725.06
2023-04-03T08:54:31.615Z,99721.75
2023-04-03T08:57:01.154Z,99722.81
2023-04-03T08:59:34.955Z,99732.88
2023-04-03T09:02:06.382Z,99723.03
2023-04-03T09:04:34.777Z,99729.53
2023-04-03T09:07:09.956Z,99728.47
2023-04-03T09:09:44.809Z,99732.66
2023-04-03T09:12:20.903Z,99731.81
2023-04-03T09:15:04.255Z,99719.63
2023-04-03T09:17:35.417Z,99733.03
2023-04-03T09:20:20.360Z,99725.47
2023-04-03T09:22:52.155Z,99729.63
2023-04-03T09:25:28.695Z,99732.13
2023-04-03T09:27:57.032Z,99736.31
2023-04-03T09:30:25.842Z,99742.09
2023-04-03T09:32:54.716Z,99729.56
2023-04-03T09:35:44.931Z,99734.56
2023-04-03T09:38:18.550Z,99734.13
2023-04-03T09:40:50.674Z,99738.50
2023-04-03T09:43:18.394Z,99731.75
2023-04-03T09:45:46.726Z,99726.09
2023-04-03T09:49:08.885Z,99732.13
2023-04-03T09:51:50.495Z,99730.62
2023-04-03T09:55:08.656Z,99731.44
2023-04-03T09:58:03.564Z,99724.75
2023-04-03T10:00:59.584Z,99730.19
2023-04-03T10:03:37.560Z,99731.84
2023-04-03T10:06:05.678Z,99724.50
2023-04-03T10:08:34.571Z,99719.06
2023-04-03T10:11:11.046Z,99721.53
2023-04-03T10:13:51.362Z,99725.09
2023-04-03T10:16:21.678Z,99719.44
2023-04-03T10:19:00.337Z,99715.88
2023-04-03T10:21:32.153Z,99716.47
2023-04-03T10:24:16.153Z,99721.09
2023-04-03T10:26:52.267Z,99720.03
2023-04-03T10:29:48.145Z,99715.41
2023-04-03T10:32:24.727Z,99720.84
2023-04-03T10:35:25.144Z,99717.06
2023-04-03T10:38:03.090Z,99720.66
2023-04-03T10:40:35.378Z,99719.59
2023-04-03T10:43:34.519Z,99709.97
2023-04-03T10:46:08.498Z,99717.91
2023-04-03T10:48:56.187Z,99721.47
2023-04-03T10:52:10.242Z,99711.63
2023-04-03T10:55:29.775Z,99715.19
2023-04-03T10:58:41.429Z,99708.91
2023-04-03T11:01:33.788Z,99710.78
2023-04-03T11:04:02.067Z,99715.41
2023-04-03T11:07:01.190Z,99713.75
2023-04-03T11:09:38.948Z,99713.31
2023-04-03T11:12:20.156Z,99716.22
2023-04-03T11:14:48.269Z,99708.31
2023-04-03T11:17:24.972Z,99711.84
2023-04-03T11:19:55.682Z,99703.69
2023-04-03T11:22:42.893Z,99712.09
2023-04-03T11:25:16.374Z,99703.69
2023-04-03T11:27:47.064Z,99699.31
2023-04-03T11:30:19.597Z,99696.81
2023-04-03T11:33:13.904Z,99698.47
2023-04-03T11:35:46.960Z,99688.19
2023-04-03T11:38:37.356Z,99688.19
2023-04-03T11:41:06.126Z,99679.81
2023-04-03T11:43:34.494Z,99679.19
2023-04-03T11:46:05.641Z,99681.06
2023-04-03T11:48:36.399Z,99689.00
2023-04-03T11:51:21.691Z,99681.91
2023-04-03T11:53:49.678Z,99683.56
2023-04-03T11:56:29.076Z,99684.62
2023-04-03T11:59:19.415Z,99678.12
2023-04-03T12:01:51.129Z,99686.91
2023-04-03T12:04:20.436Z,99687.97
2023-04-03T12:06:48.109Z,99681.66
2023-04-03T12:09:29.067Z,99679.81
2023-04-03T12:11:57.784Z,99686.06
2023-04-03T12:14:28.464Z,99681.47
2023-04-03T12:16:58.682Z,99685.25
2023-04-03T12:19:44.460Z,99681.66
2023-04-03T12:22:14.254Z,99677.91
2023-04-03T12:24:43.786Z,99678.12
2023-04-03T12:27:49.814Z,99668.06
2023-04-03T12:30:24.014Z,99671.63
2023-04-03T12:33:19.968Z,99671.25
2023-04-03T12:35:56.971Z,99673.97
2023-04-03T12:39:09.709Z,99676.91
2023-04-03T12:42:21.673Z,99673.59
2023-04-03T12:45:11.618Z,99671.94
2023-04-03T12:47:40.977Z,99662.81
2023-04-03T12:50:25.032Z,99668.00
2023-04-03T12:53:14.229Z,99670.28
2023-04-03T12:55:41.809Z,99664.22
2023-04-03T12:58:23.598Z,99669.22
2023-04-03T13:01:24.512Z,99664.59
2023-04-03T13:03:56.927Z,99649.69
2023-04-03T13:06:28.457Z,99657.84
2023-04-03T13:09:05.225Z,99657.84
2023-04-03T13:11:36.031Z,99644.03
2023-04-03T13:14:06.884Z,99642.72
2023-04-03T13:16:34.809Z,99641.69
2023-04-03T13:19:02.496Z,99640.38
2023-04-03T13:21:31.911Z,99643.72
2023-04-03T13:24:14.057Z,99635.53
2023-04-03T13:26:42.925Z,99635.53
2023-04-03T13:29:30.020Z,99634.69
2023-04-03T13:31:59.195Z,99636.00
2023-04-03T13:34:28.808Z,99629.09
2023-04-03T13:36:58.185Z,99637.50
2023-04-03T13:39:26.991Z,99625.19
2023-04-03T13:41:56.171Z,99629.78
2023-04-03T13:44:23.457Z,99633.81
2023-04-03T13:46:52.371Z,99628.37
2023-04-03T13:49:32.093Z,99624.44
2023-04-03T13:52:07.143Z,99627.63
2023-04-03T13:54:40.344Z,99622.41
2023-04-03T13:57:16.034Z,99618.03
2023-04-03T13:59:44.204Z,99620.97
2023-04-03T14:02:15.235Z,99608.44
2023-04-03T14:04:46.063Z,99616.84
2023-04-03T14:07:13.880Z,99607.22
2023-04-03T14:09:41.528Z,99602.59
2023-04-03T14:12:32.915Z,99611.00
2023-04-03T14:15:12.141Z,99603.09
2023-04-03T14:17:39.871Z,99607.69
2023-04-03T14:20:08.092Z,99617.75
2023-04-03T14:22:35.847Z,99612.53
2023-04-03T14:25:04.184Z,99608.38
2023-04-03T14:27:36.238Z,99611.09
2023-04-03T14:30:05.105Z,99614.03
2023-04-03T14:32:32.717Z,99617.00
2023-04-03T14:35:00.528Z,99615.34
2023-04-03T14:37:30.281Z,99613.44
2023-04-03T14:39:58.396Z,99607.38
2023-04-03T14:42:29.090Z,99602.81
2023-04-03T14:44:56.810Z,99609.53
2023-04-03T14:47:31.180Z,99622.28
2023-04-03T14:50:03.580Z,99630.47
2023-04-03T14:52:32.789Z,99629.84
2023-04-03T14:55:01.440Z,99629.25
2023-04-03T14:57:29.545Z,99625.69
2023-04-03T14:59:57.353Z,99628.66
2023-04-03T15:02:32.081Z,99626.16
2023-04-03T15:05:00.279Z,99627.22
2023-04-03T15:07:29.262Z,99629.09
2023-04-03T15:09:59.440Z,99631.00
2023-04-03T15:12:26.745Z,99630.16
2023-04-03T15:15:01.062Z,99628.19
2023-04-03T15:17:30.448Z,99624.50
2023-04-03T15:19:58.213Z,99632.88
2023-04-03T15:22:25.713Z,99638.31
2023-04-03T15:24:53.225Z,99624.94
2023-04-03T15:27:20.946Z,99636.66
2023-04-03T15:29:48.476Z,99631.81
2023-04-03T15:32:15.986Z,99625.94
2023-04-03T15:34:43.748Z,99631.16
2023-04-03T15:37:11.263Z,99629.50
2023-04-03T15:39:38.689Z,99633.03
2023-04-03T15:42:09.316Z,99627.59
2023-04-03T15:44:36.780Z,99636.59
2023-04-03T15:47:04.309Z,99631.97
2023-04-03T15:49:33.642Z,99630.06
2023-04-03T15:52:01.279Z,99641.78
2023-04-03T15:54:30.538Z,99641.72
2023-04-03T15:56:58.372Z,99630.38
2023-04-03T15:59:25.939Z,99634.28
2023-04-03T16:01:53.480Z,99631.28
2023-04-03T16:04:21.916Z,99629.44
2023-04-03T16:06:50.061Z,99633.88
2023-04-03T16:09:17.605Z,99630.13
2023-04-03T16:11:45.392Z,99631.88
2023-04-03T16:14:12.977Z,99626.44
2023-04-03T16:16:40.575Z,99629.19
2023-04-03T16:19:08.329Z,99628.16
2023-04-03T16:21:35.884Z,99631.12
2023-04-03T16:24:03.656Z,99626.75
2023-04-03T16:26:31.465Z,99618.00
2023-04-03T16:28:59.030Z,99623.69
2023-04-03T16:31:26.573Z,99624.16
2023-04-03T16:33:54.326Z,99630.34
2023-04-03T16:36:21.896Z,99632.34
2023-04-03T16:38:49.514Z,99630.94
2023-04-03T16:41:18.116Z,99641.13
2023-04-03T16:43:45.758Z,99646.34
2023-04-03T16:46:16.158Z,99639.78
2023-04-03T16:48:44.000Z,99639.31
2023-04-03T16:51:14.198Z,99648.34
2023-04-03T16:53:42.913Z,99644.19
2023-04-03T16:56:11.050Z,99642.28
2023-04-03T16:58:38.843Z,99654.28
2023-04-03T17:01:14.337Z,99658.31
2023-04-03T17:03:42.444Z,99655.59
2023-04-03T17:06:15.672Z,99665.06
2023-04-03T17:08:44.328Z,99663.66
2023-04-03T17:11:11.914Z,99678.34
2023-04-03T17:13:39.568Z,99683.47
2023-04-03T17:16:09.653Z,99692.97
2023-04-03T17:18:37.804Z,99702.47
2023-04-03T17:21:06.461Z,99706.47
2023-04-03T17:23:36.959Z,99709.69
2023-04-03T17:26:04.743Z,99703.63
2023-04-03T17:28:32.417Z,99707.66
2023-04-03T17:31:01.230Z,99711.69
2023-04-03T17:33:31.193Z,99723.06
2023-04-03T17:35:59.404Z,99729.03
2023-04-03T17:38:27.264Z,99740.63
2023-04-03T17:40:58.821Z,99745.59
2023-04-03T17:43:29.410Z,99749.84
2023-04-03T17:46:05.101Z,99752.25
2023-04-03T17:48:33.468Z,99763.38
2023-04-03T17:51:11.757Z,99769.91
2023-04-03T17:53:41.316Z,99770.31
2023-04-03T17:56:10.474Z,99777.66
2023-04-03T17:58:38.470Z,99775.44
2023-04-03T18:01:14.719Z,99792.00
2023-04-03T18:03:43.801Z,99796.03
2023-04-03T18:06:20.920Z,99807.97
2023-04-03T18:08:51.670Z,99812.84
2023-04-03T18:11:21.482Z,99825.66
2023-04-03T18:13:51.846Z,99832.91
2023-04-03T18:16:20.063Z,99841.41
2023-04-03T18:18:50.700Z,99835.81
2023-04-03T18:21:23.542Z,99836.88
2023-04-03T18:23:55.824Z,99842.56
2023-04-03T18:26:27.274Z,99847.41
2023-04-03T18:28:59.397Z,99849.53
2023-04-03T18:31:28.867Z,99848.94
2023-04-03T18:33:59.371Z,99865.50
2023-04-03T18:36:29.845Z,99869.31
2023-04-03T18:38:58.602Z,99866.81
2023-04-03T18:41:29.223Z,99879.00
2023-04-03T18:43:58.622Z,99876.50
2023-04-03T18:46:26.992Z,99881.97
2023-04-03T18:48:55.599Z,99881.13
2023-04-03T18:51:27.386Z,99891.41
2023-04-03T18:53:55.994Z,99887.84
2023-04-03T18:56:27.738Z,99881.56
2023-04-03T18:58:57.264Z,99886.19
2023-04-03T19:01:26.614Z,99877.19
2023-04-03T19:03:55.513Z,99875.53
2023-04-03T19:06:25.027Z,99883.72
2023-04-03T19:08:53.827Z,99887.72
2023-04-03T19:11:23.519Z,99890.44
2023-04-03T19:14:10.434Z,99888.97
2023-04-03T19:16:41.588Z,99881.66
2023-04-03T19:19:10.001Z,99882.69
2023-04-03T19:21:41.783Z,99880.22
2023-04-03T19:24:11.450Z,99882.13
2023-04-03T19:26:41.359Z,99886.72
2023-04-03T19:29:10.198Z,99880.66
2023-04-03T19:31:41.054Z,99882.34
2023-04-03T19:34:09.643Z,99890.72
2023-04-03T19:36:40.223Z,99893.69
2023-04-03T19:39:13.368Z,99886.78
2023-04-03T19:41:45.379Z,99894.13
2023-04-03T19:44:15.162Z,99885.13
2023-04-03T19:46:50.973Z,99881.56
2023-04-03T19:49:21.031Z,99884.53
2023-04-03T19:51:49.466Z,99883.91
2023-04-03T19:54:18.919Z,99881.19
2023-04-03T19:56:47.895Z,99881.44
2023-04-03T19:59:17.014Z,99879.75
2023-04-03T20:01:46.582Z,99881.88
2023-04-03T20:04:21.570Z,99877.47
2023-04-03T20:06:51.092Z,99872.28
2023-04-03T20:09:21.779Z,99885.25
2023-04-03T20:11:50.950Z,99889.69
2023-04-03T20:14:20.127Z,99889.84
2023-04-03T20:16:47.838Z,99894.47
2023-04-03T20:19:16.854Z,99898.25
2023-04-03T20:21:48.189Z,99887.59
2023-04-03T20:24:17.248Z,99884.03
2023-04-03T20:26:47.210Z,99888.63
2023-04-03T20:29:16.616Z,99885.31
2023-04-03T20:31:44.399Z,99883.88
2023-04-03T20:34:13.553Z,99887.41
2023-04-03T20:36:41.191Z,99886.59
2023-04-03T20:39:08.742Z,99889.53
2023-04-03T20:41:37.923Z,99893.34
2023-04-03T20:44:05.861Z,99889.16
2023-04-03T20:46:49.194Z,99901.13
2023-04-03T20:49:21.192Z,99905.50
2023-04-03T20:51:51.215Z,99894.84
2023-04-03T20:54:19.187Z,99903.25
2023-04-03T20:56:49.729Z,99895.06
2023-04-03T20:59:17.721Z,99901.34
2023-04-03T21:01:46.920Z,99892.56
2023-04-03T21:04:26.603Z,99886.50
2023-04-03T21:07:31.792Z,99898.81
2023-04-03T21:10:37.436Z,99893.38
2023-04-03T21:13:42.795Z,99900.72
2023-04-03T21:16:10.395Z,99886.75
2023-04-03T21:19:00.890Z,99888.59
2023-04-03T21:21:28.881Z,99891.34
2023-04-03T21:23:56.430Z,99885.06
2023-04-03T21:26:26.028Z,99885.69
2023-04-03T21:28:53.856Z,99882.28
2023-04-03T21:31:21.982Z,99879.31
2023-04-03T21:33:50.168Z,99887.25
2023-04-03T21:36:17.961Z,99887.88
2023-04-03T21:38:46.040Z,99886.59
2023-04-03T21:41:13.528Z,99886.16
2023-04-03T21:43:41.470Z,99876.09
2023-04-03T21:46:09.032Z,99880.25
2023-04-03T21:48:36.805Z,99871.84
2023-04-03T21:51:04.991Z,99868.91
2023-04-03T21:53:32.458Z,99869.75
2023-04-03T21:56:03.175Z,99866.59
2023-04-03T21:58:32.081Z,99863.03
2023-04-03T22:01:13.385Z,99867.41
2023-04-03T22:03:41.827Z,99871.59
2023-04-03T22:06:09.706Z,99853.34
2023-04-03T22:08:37.372Z,99858.19
2023-04-03T22:11:06.688Z,99857.16
2023-04-03T22:13:34.396Z,99859.03
2023-04-03T22:16:02.536Z,99856.53
2023-04-03T22:18:30.486Z,99852.97
2023-04-03T22:20:58.073Z,99852.12
2023-04-03T22:23:26.170Z,99848.59
2023-04-03T22:26:07.455Z,99856.75
2023-04-03T22:28:37.441Z,99855.94
2023-04-03T22:31:07.639Z,99856.13
2023-04-03T22:33:38.298Z,99861.59
2023-04-03T22:36:06.713Z,99855.28
2023-04-03T22:38:35.067Z,99855.50
2023-04-03T22:41:03.868Z,99857.63
2023-04-03T22:43:32.657Z,99861.41
2023-04-03T22:46:01.224Z,99864.75
2023-04-03T22:48:28.772Z,99875.00
2023-04-03T22:50:56.548Z,99880.69
2023-04-03T22:53:24.068Z,99882.59
2023-04-03T22:55:57.662Z,99880.09
2023-04-03T22:58:28.913Z,99878.41
2023-04-03T23:01:05.031Z,99876.75
2023-04-03T23:03:33.495Z,99872.37
2023-04-03T23:06:04.117Z,99878.87
2023-04-03T23:08:32.627Z,99879.09
2023-04-03T23:11:00.654Z,99873.66
2023-04-03T23:13:28.162Z,99873.06
2023-04-03T23:15:56.492Z,99867.59
2023-04-03T23:18:24.717Z,99866.16
2023-04-03T23:20:52.268Z,99866.16
2023-04-03T23:23:19.851Z,99872.66
2023-04-03T23:25:52.357Z,99874.56
2023-04-03T23:28:38.272Z,99873.97
2023-04-03T23:31:10.298Z,99873.34
2023-04-03T23:33:43.827Z,99863.50
2023-04-03T23:36:13.175Z,99861.03
2023-04-03T23:38:41.193Z,99861.22
2023-04-03T23:41:08.665Z,99853.28
2023-04-03T23:43:37.095Z,99856.84
2023-04-03T23:46:04.548Z,99857.91
2023-04-03T23:48:32.002Z,99857.06
2023-04-03T23:50:59.746Z,99858.97
2023-04-03T23:53:27.284Z,99860.25
2023-04-03T23:55:54.809Z,99865.09
2023-04-03T23:58:22.741Z,99859.62
